Terminal Aerodrome Forecast
Issued by NWS

Home | Current Version | Previous Version | Text Only | Print | Product List | Glossary On
Versions: 1 2 3 4 5 6 7 8 9 10 11 12 13 14
000
FTUS46 KSGX 222354 CCA
TAFTRM
TAF COR
KTRM 222354Z 2300/2324 35014G22KT P6SM SKC
     FM230200 33015G25KT P6SM SCT200
     FM231100 33011KT P6SM SKC
     FM231700 VRB06KT P6SM SKC
     FM232300 31010KT P6SM SKC=

USA.gov is the U.S. government's official web portal to all federal, state and local government web resources and services.